Time;durP1;ratioP1;P1;durP2;ratioP2;P2;SDS_P1;SDS_P2;PMS_P1;PMS_P2;Temp;Humidity;BMP_temperature;BMP_pressure;BME280_temperature;BME280_humidity;BME280_pressure;Samples;Min_cycle;Max_cycle;Signal;HPM_P1;HPM_P2
2021/12/31 00:02:20;;;;;;;19.90;11.43;;;;;;;3.42;89.71;100037.53;4956901;28;20045;-91
2021/12/31 00:04:51;;;;;;;22.42;11.77;;;;;;;3.39;89.67;100037.41;4975353;28;20046;-90
2021/12/31 00:07:24;;;;;;;19.20;11.00;;;;;;;3.39;89.54;100029.84;4959171;28;20046;-91
2021/12/31 00:10:01;;;;;;;23.83;11.93;;;;;;;3.36;89.49;100030.59;4958542;28;20052;-91
2021/12/31 00:12:33;;;;;;;24.83;13.35;;;;;;;3.39;89.25;100032.38;4953765;28;20137;-91
2021/12/31 00:15:06;;;;;;;22.23;12.52;;;;;;;3.38;89.34;100031.50;4952864;28;20493;-89
2021/12/31 00:17:36;;;;;;;21.38;11.93;;;;;;;3.31;89.44;100018.66;4948604;28;20060;-91
2021/12/31 00:20:12;;;;;;;23.08;12.10;;;;;;;3.35;89.25;100028.91;4971103;28;20401;-90
2021/12/31 00:25:39;;;;;;;21.10;12.32;;;;;;;3.39;89.54;100029.84;4936432;28;20051;-90
2021/12/31 00:28:10;;;;;;;19.10;12.18;;;;;;;3.40;89.65;100031.56;4932895;29;20063;-90
2021/12/31 00:30:44;;;;;;;20.08;11.50;;;;;;;3.40;89.07;100036.63;4904542;29;20138;-91
2021/12/31 00:33:20;;;;;;;21.60;12.05;;;;;;;3.28;89.29;100018.56;4938206;29;20093;-91
2021/12/31 00:35:51;;;;;;;20.58;12.10;;;;;;;3.38;89.74;100033.19;4936384;29;20074;-89
2021/12/31 00:38:22;;;;;;;21.10;11.55;;;;;;;3.27;89.44;100016.81;4937617;29;20130;-91
2021/12/31 00:40:54;;;;;;;18.55;11.68;;;;;;;3.38;89.45;100039.06;4936863;29;20051;-91
2021/12/31 00:43:27;;;;;;;17.83;10.23;;;;;;;2.40;89.18;99896.22;4953688;29;20055;-91
2021/12/31 00:45:58;;;;;;;17.02;10.30;;;;;;;3.31;89.04;100043.88;4920015;29;20540;-92
2021/12/31 00:48:28;;;;;;;14.25;8.93;;;;;;;3.44;89.46;100071.22;4938082;29;20405;-90
2021/12/31 00:50:59;;;;;;;14.93;8.98;;;;;;;3.36;89.54;100053.31;4933054;29;20120;-91
2021/12/31 00:53:33;;;;;;;13.35;9.10;;;;;;;3.33;89.29;100067.50;4952554;28;20074;-91
2021/12/31 00:56:06;;;;;;;13.23;8.15;;;;;;;3.04;88.97;100010.16;4939171;28;20539;-91
2021/12/31 00:58:39;;;;;;;14.80;9.05;;;;;;;3.36;89.06;100077.66;4925205;28;20055;-91
2021/12/31 01:01:17;;;;;;;14.48;8.50;;;;;;;3.27;89.39;100083.25;4956910;28;20046;-91
2021/12/31 01:03:49;;;;;;;13.20;7.78;;;;;;;3.38;89.04;100086.16;4954002;28;20047;-92
2021/12/31 01:06:22;;;;;;;12.98;7.65;;;;;;;3.28;89.21;100054.72;4957710;28;20075;-91
2021/12/31 01:08:53;;;;;;;12.57;7.70;;;;;;;3.40;89.53;100084.56;4955864;29;20561;-91
2021/12/31 01:11:25;;;;;;;14.82;8.45;;;;;;;3.40;89.13;100074.47;4953154;29;20043;-90
2021/12/31 01:13:59;;;;;;;17.73;9.38;;;;;;;3.33;89.71;100047.31;4937394;29;20142;-89
2021/12/31 01:16:37;;;;;;;11.85;6.88;;;;;;;3.16;89.01;100033.28;4944477;29;20035;-89
2021/12/31 01:21:45;;;;;;;13.05;8.02;;;;;;;3.05;89.36;100034.53;4936363;29;20106;-90
2021/12/31 01:24:14;;;;;;;;;;;;;;;3.37;88.61;100079.38;4954059;28;20039;-92
2021/12/31 01:26:47;;;;;;;13.73;7.53;;;;;;;3.31;89.01;100079.19;4919015;29;20293;-91
2021/12/31 01:29:20;;;;;;;13.30;7.57;;;;;;;3.27;88.94;100072.31;4934942;29;20062;-91
2021/12/31 01:31:53;;;;;;;13.73;8.23;;;;;;;3.29;89.26;100075.75;4932746;29;20102;-90
2021/12/31 01:34:24;;;;;;;13.52;8.32;;;;;;;3.32;88.88;100075.84;4936157;29;20040;-90
2021/12/31 01:36:55;;;;;;;13.38;8.10;;;;;;;3.02;89.43;100019.34;4923716;29;20402;-90
2021/12/31 01:39:32;;;;;;;13.85;7.80;;;;;;;3.25;89.22;100073.94;4934507;29;20082;-91
2021/12/31 01:42:11;;;;;;;13.05;8.15;;;;;;;3.06;89.38;100041.31;4935180;29;20132;-90
2021/12/31 01:44:55;;;;;;;14.10;8.18;;;;;;;3.25;89.01;100078.97;4957362;28;20095;-91
2021/12/31 01:47:34;;;;;;;19.20;7.65;;;;;;;3.25;88.87;100078.97;4934531;29;20052;-91
2021/12/31 01:50:08;;;;;;;13.73;8.37;;;;;;;3.20;88.98;100076.28;4932017;29;20135;-90
2021/12/31 01:52:40;;;;;;;14.35;8.75;;;;;;;3.18;88.96;100077.91;4923503;29;20302;-90
2021/12/31 01:55:15;;;;;;;15.52;8.52;;;;;;;3.18;89.08;100072.00;4931823;29;20056;-90
2021/12/31 01:57:47;;;;;;;18.63;9.20;;;;;;;2.23;89.18;99930.00;4932807;29;20502;-91
2021/12/31 02:00:16;;;;;;;15.75;8.90;;;;;;;3.16;89.82;100083.69;4935879;29;20063;-89
2021/12/31 02:02:48;;;;;;;16.75;8.60;;;;;;;3.10;89.67;100089.38;4938334;29;20404;-90
2021/12/31 02:05:18;;;;;;;19.77;9.52;;;;;;;2.64;89.04;100013.78;4936495;29;20502;-91
2021/12/31 02:07:48;;;;;;;14.82;8.95;;;;;;;3.00;89.53;100077.25;4934247;29;20055;-91
2021/12/31 02:10:18;;;;;;;17.17;9.02;;;;;;;3.06;89.65;100071.56;4939227;29;20055;-91
2021/12/31 02:12:54;;;;;;;16.05;8.93;;;;;;;1.96;89.03;99898.00;4936032;28;20046;-91
2021/12/31 02:15:30;;;;;;;15.52;8.23;;;;;;;2.96;89.43;100074.56;4937251;29;20090;-92
2021/12/31 02:18:03;;;;;;;17.73;9.95;;;;;;;3.00;89.59;100071.38;4922329;29;20067;-92
2021/12/31 02:20:50;;;;;;;18.58;9.00;;;;;;;3.01;89.97;100068.88;4935306;29;20048;-92
2021/12/31 02:23:27;;;;;;;16.40;8.93;;;;;;;3.02;89.51;100072.28;4932269;29;20110;-91
2021/12/31 02:26:00;;;;;;;15.73;9.02;;;;;;;3.05;89.93;100064.78;4945852;29;20063;-91
2021/12/31 02:28:32;;;;;;;18.55;9.82;;;;;;;2.94;89.55;100051.84;4953095;28;20130;-91
2021/12/31 02:31:03;;;;;;;17.77;10.05;;;;;;;3.07;89.99;100073.31;4923654;29;20043;-90
2021/12/31 02:33:37;;;;;;;16.35;8.88;;;;;;;2.82;89.34;100025.34;4959039;29;20071;-92
2021/12/31 02:36:09;;;;;;;17.95;10.10;;;;;;;2.91;89.48;100058.41;4938851;29;20413;-92
2021/12/31 02:38:39;;;;;;;20.33;10.07;;;;;;;2.98;89.49;100067.91;4958636;29;20051;-92
2021/12/31 02:41:13;;;;;;;25.35;9.32;;;;;;;2.87;89.98;100038.97;4958426;29;20051;-91
2021/12/31 02:43:42;;;;;;;18.38;9.75;;;;;;;2.97;90.21;100057.00;4922535;29;20500;-91
2021/12/31 02:46:12;;;;;;;18.60;9.27;;;;;;;3.02;90.09;100054.63;4920648;29;20426;-91
2021/12/31 02:48:54;;;;;;;17.38;9.80;;;;;;;3.02;89.49;100059.66;4934380;29;20130;-91
2021/12/31 02:51:30;;;;;;;20.15;9.73;;;;;;;3.03;89.78;100058.84;4927976;29;20047;-91
2021/12/31 02:54:03;;;;;;;16.25;9.25;;;;;;;3.11;89.51;100054.94;4956180;28;20126;-92
2021/12/31 02:56:33;;;;;;;16.08;9.50;;;;;;;2.94;89.48;100029.16;4939279;29;20075;-92
2021/12/31 02:59:03;;;;;;;15.95;9.75;;;;;;;3.07;90.15;100053.13;4948384;29;20050;-91
2021/12/31 03:01:33;;;;;;;21.40;9.40;;;;;;;2.83;89.64;100027.06;4935072;29;20126;-92
2021/12/31 03:04:07;;;;;;;15.30;9.05;;;;;;;2.03;89.75;99896.56;4956805;29;20047;-91
2021/12/31 03:06:46;;;;;;;20.67;9.50;;;;;;;3.01;90.13;100061.31;4955302;29;20051;-90
2021/12/31 03:09:23;;;;;;;18.17;10.02;;;;;;;3.12;90.08;100061.72;4891552;29;20402;-90
2021/12/31 03:11:56;;;;;;;14.02;8.63;;;;;;;3.12;89.76;100066.75;4934566;29;20046;-90
2021/12/31 03:14:27;;;;;;;18.48;9.60;;;;;;;3.08;89.74;100059.88;4933294;29;20516;-91
2021/12/31 03:16:58;;;;;;;18.98;9.95;;;;;;;3.10;90.11;100068.34;4949920;29;20043;-91
2021/12/31 03:19:31;;;;;;;16.20;9.75;;;;;;;3.08;90.55;100062.38;4937208;29;20071;-91
2021/12/31 03:22:05;;;;;;;23.55;10.18;;;;;;;3.10;89.68;100068.34;4937897;29;20138;-91
2021/12/31 03:24:34;;;;;;;19.67;11.07;;;;;;;3.05;90.33;100047.16;4953772;28;20509;-91
2021/12/31 03:27:05;;;;;;;19.27;9.95;;;;;;;3.05;90.39;100047.16;4952316;29;20464;-91
2021/12/31 03:29:35;;;;;;;24.52;10.15;;;;;;;2.57;90.03;99948.00;4955041;29;20073;-91
2021/12/31 03:32:06;;;;;;;24.83;10.73;;;;;;;3.26;89.99;100055.47;4956180;28;20054;-91
2021/12/31 03:34:35;;;;;;;18.77;10.45;;;;;;;3.28;90.11;100053.88;4956176;28;20125;-91
2021/12/31 03:37:06;;;;;;;19.88;10.63;;;;;;;3.28;90.44;100057.25;4927994;29;20095;-91
2021/12/31 03:39:36;;;;;;;20.02;10.02;;;;;;;3.23;90.55;100060.41;4953720;28;20055;-89
2021/12/31 03:42:09;;;;;;;;;;;;;;;3.24;90.62;100069.66;4939854;29;20134;-91
2021/12/31 03:44:39;;;;;;;18.55;9.50;;;;;;;3.14;90.40;100050.00;4955545;29;19930;-92
2021/12/31 03:47:10;;;;;;;20.40;9.65;;;;;;;3.25;90.06;100062.19;4956686;28;20114;-91
2021/12/31 03:49:39;;;;;;;;;;;;;;;3.27;90.83;100062.22;4954007;29;20067;-92
2021/12/31 03:52:14;;;;;;;15.88;8.13;;;;;;;3.16;89.71;100048.41;4956616;28;20013;-92
2021/12/31 03:54:45;;;;;;;18.88;8.73;;;;;;;3.14;90.05;100057.56;4955304;29;20047;-91
2021/12/31 03:57:15;;;;;;;16.75;8.02;;;;;;;3.16;90.01;100055.97;4913929;29;20067;-91
2021/12/31 03:59:45;;;;;;;18.25;9.32;;;;;;;2.95;90.24;100022.44;4922178;29;20036;-91
2021/12/31 04:02:22;;;;;;;15.63;8.40;;;;;;;3.07;90.75;100053.13;4949199;29;20050;-91
2021/12/31 04:04:52;;;;;;;14.95;8.07;;;;;;;3.11;90.35;100060.84;4955320;29;20134;-91
2021/12/31 04:07:23;;;;;;;;;;;;;;;3.16;90.12;100061.88;4950471;29;20138;-91
2021/12/31 04:10:00;;;;;;;18.33;8.57;;;;;;;2.24;90.27;99907.41;4940302;29;19922;-91
2021/12/31 04:12:33;;;;;;;16.00;8.88;;;;;;;3.25;90.36;100058.78;4928160;29;20490;-90
2021/12/31 04:15:07;;;;;;;15.02;8.15;;;;;;;3.32;90.28;100065.75;4924135;29;20103;-91
2021/12/31 04:17:39;;;;;;;18.65;9.10;;;;;;;3.30;90.92;100072.41;4951472;29;20035;-90
2021/12/31 04:20:18;;;;;;;16.95;8.75;;;;;;;3.32;90.81;100070.81;4940903;29;20039;-91
2021/12/31 04:22:54;;;;;;;14.98;6.43;;;;;;;3.29;90.68;100065.66;4939266;29;20051;-90
2021/12/31 04:25:24;;;;;;;18.05;8.88;;;;;;;3.31;90.27;100064.06;4940937;29;20130;-91
2021/12/31 04:27:55;;;;;;;18.50;9.18;;;;;;;3.25;90.69;100043.66;4932191;29;20091;-90
2021/12/31 04:30:25;;;;;;;17.08;8.68;;;;;;;3.32;90.63;100055.66;4957155;28;20055;-90
2021/12/31 04:32:58;;;;;;;20.73;9.32;;;;;;;3.40;90.36;100071.94;4953779;29;20043;-91
2021/12/31 04:35:29;;;;;;;18.08;9.25;;;;;;;3.37;90.31;100064.25;4920391;29;20516;-91
2021/12/31 04:38:01;;;;;;;20.80;10.35;;;;;;;3.38;90.95;100076.91;4953918;28;20078;-90
2021/12/31 04:40:31;;;;;;;19.58;8.85;;;;;;;3.39;90.60;100077.78;4905642;29;20397;-91
2021/12/31 04:43:01;;;;;;;16.98;8.85;;;;;;;3.44;90.28;100075.41;4955706;29;20497;-90
2021/12/31 04:45:37;;;;;;;17.45;9.18;;;;;;;3.46;90.28;100074.66;4956936;28;20044;-90
2021/12/31 04:48:07;;;;;;;19.30;10.13;;;;;;;3.40;90.80;100069.41;4947185;29;20110;-90
2021/12/31 04:50:37;;;;;;;20.08;10.35;;;;;;;3.40;90.30;100084.56;4940305;29;20070;-91
2021/12/31 04:53:09;;;;;;;17.52;8.55;;;;;;;3.40;90.54;100079.50;4938534;29;20085;-91
2021/12/31 04:55:39;;;;;;;18.95;9.40;;;;;;;3.41;90.90;100086.25;4918792;29;20511;-91
2021/12/31 04:58:09;;;;;;;18.25;10.77;;;;;;;3.47;90.32;100081.44;4950768;29;20520;-89
2021/12/31 05:00:39;;;;;;;16.70;9.15;;;;;;;3.33;90.55;100075.91;4952126;28;20047;-89
2021/12/31 05:03:14;;;;;;;20.45;9.75;;;;;;;3.42;90.16;100087.09;4953822;28;20051;-91
2021/12/31 05:05:47;;;;;;;18.52;9.48;;;;;;;3.34;90.72;100081.81;4946778;28;20039;-91
2021/12/31 05:08:19;;;;;;;20.58;10.77;;;;;;;3.05;90.46;100029.50;4951322;29;20061;-91
2021/12/31 05:10:49;;;;;;;17.23;9.93;;;;;;;3.45;90.59;100098.19;4944888;29;20493;-91
2021/12/31 05:13:20;;;;;;;19.73;9.82;;;;;;;2.68;90.72;99962.72;4930741;29;20058;-91
2021/12/31 05:15:57;;;;;;;17.08;9.48;;;;;;;3.51;90.23;100103.41;4947414;29;20144;-91
2021/12/31 05:18:29;;;;;;;17.92;9.10;;;;;;;3.54;90.21;100103.53;4910379;29;20051;-90
2021/12/31 05:21:03;;;;;;;17.10;9.77;;;;;;;3.54;90.25;100103.53;4937151;29;20043;-88
2021/12/31 05:23:35;;;;;;;18.42;8.75;;;;;;;3.53;90.42;100106.00;4949236;28;20039;-90
2021/12/31 05:26:09;;;;;;;17.27;7.90;;;;;;;3.44;90.07;100091.41;4947884;29;20406;-91
2021/12/31 05:28:43;;;;;;;16.08;8.68;;;;;;;3.47;90.70;100078.03;4942820;29;20045;-91
2021/12/31 05:31:13;;;;;;;18.05;8.95;;;;;;;3.54;90.36;100095.97;4953106;28;20047;-89
2021/12/31 05:33:44;;;;;;;15.73;8.65;;;;;;;3.57;90.55;100097.72;4889458;29;22235;-91
2021/12/31 05:36:14;;;;;;;18.70;9.75;;;;;;;3.54;90.52;100103.53;4938098;29;20043;-91
2021/12/31 05:38:47;;;;;;;17.83;9.63;;;;;;;3.40;90.23;100079.50;4942995;29;20481;-91
2021/12/31 05:41:17;;;;;;;17.95;9.13;;;;;;;3.58;89.97;100095.25;4955144;29;20065;-91
2021/12/31 05:43:51;;;;;;;19.83;9.10;;;;;;;3.57;89.99;100092.69;4937252;29;20049;-91
2021/12/31 05:46:21;;;;;;;19.13;9.50;;;;;;;3.49;90.32;100102.50;4938929;29;20047;-91
2021/12/31 05:48:52;;;;;;;19.45;9.27;;;;;;;3.49;89.54;100112.59;4928836;29;20375;-90
2021/12/31 05:51:26;;;;;;;18.08;8.93;;;;;;;3.30;90.16;100080.00;4954836;28;20051;-91
2021/12/31 05:53:57;;;;;;;19.00;8.57;;;;;;;3.50;89.94;100116.00;4946255;29;20072;-89
2021/12/31 05:56:28;;;;;;;17.98;8.55;;;;;;;3.42;89.69;100113.19;4950537;28;20051;-90
2021/12/31 05:59:01;;;;;;;14.50;7.30;;;;;;;3.42;90.41;100123.28;4906178;29;20054;-92
2021/12/31 06:01:31;;;;;;;18.40;8.40;;;;;;;3.39;90.23;100120.66;4952295;29;20097;-91
2021/12/31 06:04:04;;;;;;;15.43;8.63;;;;;;;2.43;89.92;99962.66;4956075;28;20048;-91
2021/12/31 06:06:35;;;;;;;16.35;8.18;;;;;;;3.45;89.68;100123.41;4953281;28;20067;-91
2021/12/31 06:09:07;;;;;;;16.73;7.97;;;;;;;3.47;90.54;100120.94;4937709;29;20051;-90
2021/12/31 06:11:38;;;;;;;15.43;8.25;;;;;;;3.41;89.92;100105.59;4952158;28;20043;-91
2021/12/31 06:14:09;;;;;;;18.92;7.85;;;;;;;3.53;90.34;100116.94;4955127;28;20486;-91
2021/12/31 06:16:42;;;;;;;14.68;8.23;;;;;;;3.52;89.76;100116.91;4954215;29;20054;-90
2021/12/31 06:19:14;;;;;;;17.98;9.02;;;;;;;3.55;90.07;100129.63;4920519;29;20512;-91
2021/12/31 06:21:46;;;;;;;15.38;8.75;;;;;;;3.45;89.84;100112.44;4937673;29;20071;-91
2021/12/31 06:24:19;;;;;;;16.63;8.40;;;;;;;3.53;90.18;100111.06;4954302;29;20047;-90
2021/12/31 06:26:50;;;;;;;15.45;8.13;;;;;;;3.63;89.73;100123.16;4951830;28;20078;-90
2021/12/31 06:29:20;;;;;;;16.13;8.43;;;;;;;3.46;89.86;100099.00;4945195;29;20164;-90
2021/12/31 06:31:50;;;;;;;16.83;8.55;;;;;;;3.07;89.72;100053.13;4946267;29;20042;-91
2021/12/31 06:34:21;;;;;;;16.25;8.80;;;;;;;3.50;89.72;100121.91;4945787;28;20134;-91
2021/12/31 06:36:53;;;;;;;15.95;8.35;;;;;;;3.62;90.03;100142.50;4937697;29;20635;-91
2021/12/31 06:39:26;;;;;;;19.08;10.27;;;;;;;3.64;89.76;100145.94;4934381;29;20043;-89
2021/12/31 06:41:56;;;;;;;21.35;10.80;;;;;;;3.68;90.37;100147.75;4936165;29;20047;-91
2021/12/31 06:44:27;;;;;;;17.90;9.77;;;;;;;3.67;90.26;100140.97;4905480;29;20047;-90
2021/12/31 06:46:57;;;;;;;24.20;10.63;;;;;;;3.41;89.83;100101.38;4950756;28;20050;-91
2021/12/31 06:49:28;;;;;;;16.95;9.50;;;;;;;3.74;90.21;100147.94;4940197;29;20486;-90
2021/12/31 06:51:58;;;;;;;16.65;9.48;;;;;;;3.78;89.95;100154.84;4952235;29;20102;-90
2021/12/31 06:54:30;;;;;;;18.63;8.98;;;;;;;3.82;90.17;100156.63;4949402;29;20047;-90
2021/12/31 06:57:00;;;;;;;13.65;8.13;;;;;;;2.71;89.46;99972.06;4949964;28;20079;-89
2021/12/31 06:59:31;;;;;;;14.32;8.40;;;;;;;3.78;90.04;100164.94;4938287;29;20047;-91
2021/12/31 07:02:01;;;;;;;14.30;7.25;;;;;;;3.70;90.13;100156.22;4949583;28;20133;-90
2021/12/31 07:04:32;;;;;;;11.95;6.45;;;;;;;3.66;89.34;100166.16;4939436;29;20035;-90
2021/12/31 07:07:02;;;;;;;;;;;;;;;3.58;89.71;100165.91;4920676;29;20141;-90
2021/12/31 07:09:34;;;;;;;10.05;5.63;;;;;;;3.54;90.04;100171.66;4939558;29;20001;-90
2021/12/31 07:12:04;;;;;;;13.35;6.47;;;;;;;3.29;89.69;100129.56;4949280;28;20047;-90
2021/12/31 07:14:34;;;;;;;12.30;6.88;;;;;;;3.42;90.27;100142.59;4949006;28;20559;-91
2021/12/31 07:17:06;;;;;;;13.90;6.78;;;;;;;3.37;89.87;100142.44;4930680;29;20043;-90
2021/12/31 07:19:36;;;;;;;14.82;8.15;;;;;;;3.25;90.05;100134.44;4935951;28;20051;-89
2021/12/31 07:22:06;;;;;;;15.15;7.95;;;;;;;3.56;89.68;100177.59;4934702;28;20134;-89
2021/12/31 07:24:38;;;;;;;;;;;;;;;3.59;90.18;100181.91;4953968;29;20071;-90
2021/12/31 07:27:08;;;;;;;17.23;9.32;;;;;;;3.44;90.19;100146.03;4940051;29;19926;-92
2021/12/31 07:29:38;;;;;;;15.80;8.80;;;;;;;3.62;90.28;100171.94;4956432;28;20052;-91
2021/12/31 07:32:09;;;;;;;22.45;10.60;;;;;;;3.35;89.72;100126.41;4910100;29;20083;-89
2021/12/31 07:34:41;;;;;;;22.77;11.27;;;;;;;3.64;89.67;100186.31;4901075;29;20192;-92
2021/12/31 07:37:11;;;;;;;21.48;11.18;;;;;;;3.56;89.95;100157.41;4893863;29;20044;-92
2021/12/31 07:39:47;;;;;;;25.25;12.15;;;;;;;3.44;89.71;100136.81;4903580;29;20133;-89
2021/12/31 07:42:19;;;;;;;24.35;10.65;;;;;;;3.07;89.81;100079.19;4897787;29;20068;-88
2021/12/31 07:44:50;;;;;;;20.08;10.63;;;;;;;3.47;89.87;100146.16;4896568;29;20112;-92
2021/12/31 07:47:20;;;;;;;21.77;11.05;;;;;;;3.75;90.30;100205.19;4888689;29;20056;-91
2021/12/31 07:49:53;;;;;;;22.00;11.25;;;;;;;3.71;89.69;100180.66;4912922;29;20529;-91
2021/12/31 07:52:23;;;;;;;20.80;10.57;;;;;;;3.89;90.06;100198.09;4914251;29;20467;-89
2021/12/31 07:55:00;;;;;;;21.27;11.88;;;;;;;3.65;90.06;100150.16;4915064;29;20052;-90
2021/12/31 07:57:30;;;;;;;27.58;11.30;;;;;;;3.92;90.03;100181.41;4916402;29;20052;-91
2021/12/31 08:00:00;;;;;;;24.52;11.07;;;;;;;3.74;89.87;100135.31;4948785;29;20138;-90
2021/12/31 08:02:44;;;;;;;;;;;;;;;4.03;89.85;100200.28;4928522;29;20520;-89
2021/12/31 08:05:14;;;;;;;18.35;9.55;;;;;;;3.80;90.13;100152.34;4940893;29;19922;-89
2021/12/31 08:07:47;;;;;;;21.27;10.30;;;;;;;3.94;90.03;100169.66;4940402;29;20058;-91
2021/12/31 08:10:19;;;;;;;22.40;10.50;;;;;;;4.07;90.46;100176.88;4940448;29;20134;-91
2021/12/31 08:13:12;;;;;;;20.75;10.63;;;;;;;3.87;89.96;100152.59;4957236;28;20051;-91
2021/12/31 08:15:42;;;;;;;;;;;;;;;4.02;90.32;100196.06;4941441;29;20139;-92
2021/12/31 08:18:16;;;;;;;22.13;10.30;;;;;;;3.95;90.33;100184.03;4957173;29;20431;-91
2021/12/31 08:20:49;;;;;;;21.90;11.70;;;;;;;4.08;90.22;100186.13;4956952;29;20044;-91
2021/12/31 08:23:22;;;;;;;23.17;11.15;;;;;;;3.72;90.31;100114.22;4925056;29;20568;-91
2021/12/31 08:25:53;;;;;;;20.80;11.48;;;;;;;3.61;90.00;100100.41;4956727;28;20098;-90
2021/12/31 08:28:27;;;;;;;25.67;14.40;;;;;;;4.12;90.10;100176.16;4940064;29;20134;-90
2021/12/31 08:31:00;;;;;;;23.13;13.35;;;;;;;4.19;89.96;100175.53;4956918;29;20063;-90
2021/12/31 08:33:34;;;;;;;25.33;12.10;;;;;;;4.25;90.11;100174.06;4957006;29;20051;-91
2021/12/31 08:36:05;;;;;;;20.67;13.05;;;;;;;4.28;90.06;100165.72;4940355;29;20094;-90
2021/12/31 08:38:35;;;;;;;24.73;13.05;;;;;;;4.27;90.10;100156.44;4924771;29;20049;-91
2021/12/31 08:41:11;;;;;;;25.13;11.93;;;;;;;4.34;90.00;100143.19;4956840;29;20532;-91
2021/12/31 08:44:05;;;;;;;22.17;13.80;;;;;;;4.60;89.85;100172.66;4943494;29;20043;-91
2021/12/31 08:46:40;;;;;;;23.63;13.40;;;;;;;4.72;89.89;100176.41;4939870;29;20051;-91
2021/12/31 08:49:14;;;;;;;26.38;14.35;;;;;;;4.82;89.97;100175.03;4925265;29;20047;-90
2021/12/31 08:51:44;;;;;;;26.30;13.07;;;;;;;4.64;90.25;100136.53;4956552;29;20043;-89
2021/12/31 08:54:17;;;;;;;25.85;12.55;;;;;;;4.87;89.65;100165.88;4957276;28;20065;-90
2021/12/31 08:56:49;;;;;;;23.25;12.05;;;;;;;4.89;89.53;100149.09;4939821;29;20510;-90
2021/12/31 08:59:23;;;;;;;22.35;11.15;;;;;;;4.16;89.55;100006.19;4957042;29;20564;-89
2021/12/31 09:01:57;;;;;;;22.85;12.48;;;;;;;5.35;89.73;100162.22;4956513;29;20058;-89
2021/12/31 09:04:28;;;;;;;28.13;13.98;;;;;;;5.62;89.79;100158.72;4939685;29;20051;-90
2021/12/31 09:07:02;;;;;;;29.50;13.77;;;;;;;5.76;89.65;100197.94;4956822;28;20437;-90
2021/12/31 09:09:31;;;;;;;22.55;12.18;;;;;;;5.52;89.47;100136.53;4956123;28;20053;-91
2021/12/31 09:12:04;;;;;;;29.38;14.20;;;;;;;5.52;88.87;100171.97;4939284;29;20067;-88
2021/12/31 09:14:38;;;;;;;26.95;12.07;;;;;;;5.40;88.91;100142.09;4908805;29;20054;-89
2021/12/31 09:17:09;;;;;;;22.40;11.57;;;;;;;5.54;88.98;100190.59;4893211;29;20043;-89
2021/12/31 09:19:42;;;;;;;20.55;10.20;;;;;;;5.63;88.92;100175.63;4939480;29;20149;-89
2021/12/31 09:22:13;;;;;;;18.08;10.05;;;;;;;6.01;88.55;100180.06;4938968;29;20051;-90
2021/12/31 09:24:48;;;;;;;18.67;9.77;;;;;;;6.05;88.91;100174.25;4923873;29;20114;-89
2021/12/31 09:27:20;;;;;;;15.90;9.85;;;;;;;6.09;88.21;100176.06;4955098;29;20055;-90
2021/12/31 09:29:53;;;;;;;19.48;10.38;;;;;;;5.91;88.10;100157.84;4908472;29;20047;-89
2021/12/31 09:32:23;;;;;;;19.35;10.50;;;;;;;5.16;87.73;99998.09;4924002;29;20074;-90
2021/12/31 09:34:53;;;;;;;18.98;10.68;;;;;;;5.78;88.36;100085.72;4923498;29;20460;-89
2021/12/31 09:37:26;;;;;;;20.02;11.60;;;;;;;6.57;88.08;100182.31;4954837;29;20044;-87
2021/12/31 09:39:59;;;;;;;18.65;9.68;;;;;;;6.66;87.49;100174.91;4939492;29;20051;-88
2021/12/31 09:42:31;;;;;;;15.73;9.27;;;;;;;6.42;86.89;100174.31;4956287;28;20086;-90
2021/12/31 09:45:07;;;;;;;18.38;9.20;;;;;;;6.01;86.21;100152.19;4939428;29;20490;-90
2021/12/31 09:47:43;;;;;;;15.90;9.10;;;;;;;5.20;86.27;100068.22;4908168;29;20086;-89
2021/12/31 09:50:18;;;;;;;12.88;7.30;;;;;;;5.97;86.49;100160.53;4938718;29;20137;-89
2021/12/31 09:52:48;;;;;;;19.40;8.02;;;;;;;5.91;86.65;100162.91;4955840;29;20067;-88
2021/12/31 09:55:37;;;;;;;15.90;8.98;;;;;;;5.96;86.35;100171.47;4955812;28;20039;-88
2021/12/31 09:58:12;;;;;;;16.20;9.18;;;;;;;5.92;86.84;100162.09;4939006;29;20051;-87
2021/12/31 10:00:46;;;;;;;17.20;9.10;;;;;;;6.02;86.38;100171.66;4955576;29;20058;-89
2021/12/31 10:03:19;;;;;;;15.70;8.15;;;;;;;5.57;86.09;100074.19;4956023;29;20062;-88
2021/12/31 10:05:51;;;;;;;17.05;8.65;;;;;;;5.95;86.31;100172.31;4955611;29;20196;-88
2021/12/31 10:08:23;;;;;;;13.75;8.45;;;;;;;5.96;86.54;100166.41;4892413;29;20498;-88
2021/12/31 10:11:08;;;;;;;20.65;10.00;;;;;;;6.11;86.52;100187.06;4923697;29;20055;-88
2021/12/31 10:13:44;;;;;;;18.05;9.55;;;;;;;6.34;86.12;100175.81;4955797;29;20560;-88
2021/12/31 10:16:22;;;;;;;17.52;9.18;;;;;;;6.52;86.11;100171.19;4939147;29;20061;-87
2021/12/31 10:19:06;;;;;;;18.48;10.25;;;;;;;6.77;86.59;100154.81;4954339;29;20051;-88
2021/12/31 10:21:41;;;;;;;19.67;10.05;;;;;;;6.66;85.76;100108.97;4941611;29;20051;-88
2021/12/31 10:24:25;;;;;;;19.63;10.45;;;;;;;7.18;86.09;100141.34;4942859;29;20458;-89
2021/12/31 10:26:58;;;;;;;20.08;11.70;;;;;;;7.29;85.57;100144.09;4959066;29;20477;-88
2021/12/31 10:29:31;;;;;;;20.90;11.57;;;;;;;7.39;85.51;100138.34;4927435;29;20501;-86
2021/12/31 10:32:01;;;;;;;19.17;10.63;;;;;;;7.45;84.49;100135.94;4941845;29;20134;-85
2021/12/31 10:34:36;;;;;;;19.23;11.00;;;;;;;7.24;84.58;100072.06;4941985;29;20051;-86
2021/12/31 10:37:19;;;;;;;19.70;10.82;;;;;;;7.69;84.24;100116.06;4958469;28;20517;-86
2021/12/31 10:39:57;;;;;;;18.90;10.80;;;;;;;7.88;83.89;100129.94;4941980;29;20134;-86
2021/12/31 10:42:32;;;;;;;22.00;11.63;;;;;;;8.18;83.80;100117.75;4958598;28;20059;-86
2021/12/31 10:45:09;;;;;;;19.08;12.27;;;;;;;7.62;83.13;99988.94;4958652;29;20055;-86
2021/12/31 10:47:48;;;;;;;18.45;11.32;;;;;;;8.54;82.52;100118.31;4957480;29;20055;-85
2021/12/31 10:50:22;;;;;;;18.48;11.15;;;;;;;8.26;82.00;100052.63;4927510;29;20043;-86
2021/12/31 10:52:59;;;;;;;21.48;11.90;;;;;;;8.69;81.95;100112.59;4958576;29;20051;-85
2021/12/31 10:55:33;;;;;;;22.45;12.48;;;;;;;8.84;81.69;100102.63;4956044;29;20074;-85
2021/12/31 10:58:07;;;;;;;20.83;12.38;;;;;;;9.32;81.37;100108.31;4941366;29;20039;-83
2021/12/31 11:00:44;;;;;;;18.75;11.98;;;;;;;9.21;81.03;100092.03;4925307;29;20496;-84
2021/12/31 11:03:19;;;;;;;19.67;12.45;;;;;;;9.41;80.80;100105.00;4941659;29;20078;-83
2021/12/31 11:05:53;;;;;;;22.45;13.63;;;;;;;8.58;80.29;99961.50;4941713;29;20125;-84
2021/12/31 11:08:28;;;;;;;24.63;13.63;;;;;;;9.12;80.33;100069.00;4941325;29;20051;-84
2021/12/31 11:11:00;;;;;;;21.02;13.30;;;;;;;9.27;79.46;100104.00;4926220;29;20062;-85
2021/12/31 11:13:33;;;;;;;26.27;15.00;;;;;;;9.17;79.74;100049.56;4957876;29;20462;-84
2021/12/31 11:16:10;;;;;;;20.38;13.50;;;;;;;9.13;79.77;100065.66;4957889;29;20043;-85
2021/12/31 11:18:41;;;;;;;21.63;13.10;;;;;;;8.95;79.92;100052.69;4958087;29;20403;-86
2021/12/31 11:21:16;;;;;;;19.52;11.98;;;;;;;9.01;79.82;100060.41;4958049;28;20051;-84
2021/12/31 11:23:49;;;;;;;18.70;11.88;;;;;;;9.34;79.85;100101.53;4925162;29;20412;-84
2021/12/31 11:26:29;;;;;;;18.38;11.38;;;;;;;9.36;80.01;100104.09;4956750;29;20079;-83
2021/12/31 11:29:16;;;;;;;23.17;11.90;;;;;;;9.50;80.11;100099.16;4940937;29;20051;-85
2021/12/31 11:31:51;;;;;;;20.83;12.52;;;;;;;9.22;80.47;100055.56;4956782;28;20529;-84
2021/12/31 11:34:27;;;;;;;24.23;13.00;;;;;;;9.63;80.14;100096.72;4957653;28;20051;-84
2021/12/31 11:36:57;;;;;;;20.13;12.52;;;;;;;9.76;80.45;100095.16;4941560;29;20110;-83
2021/12/31 11:39:29;;;;;;;22.23;13.73;;;;;;;9.93;80.09;100079.16;4952430;29;20079;-82
2021/12/31 11:42:00;;;;;;;22.52;13.13;;;;;;;9.62;79.07;100015.19;4951050;29;20113;-84
2021/12/31 11:44:33;;;;;;;21.55;13.38;;;;;;;10.03;79.61;100052.88;4957214;29;20079;-84
2021/12/31 11:47:28;;;;;;;20.70;13.68;;;;;;;10.47;79.21;100077.88;4921702;29;20049;-83
2021/12/31 11:50:24;;;;;;;22.17;13.75;;;;;;;10.47;78.01;100068.53;4928070;29;20042;-83
2021/12/31 11:53:03;;;;;;;22.00;13.23;;;;;;;10.26;78.02;100055.66;4943847;29;20055;-83
2021/12/31 11:55:43;;;;;;;;;;;;;;;10.06;77.53;100054.59;4939837;29;20035;-82
2021/12/31 11:58:26;;;;;;;;;;;;;;;9.78;77.92;100043.34;4939371;29;19927;-82